sensor_id;sensor_type;location;lat;lon;timestamp;pressure;altitude;pressure_sealevel;temperature;humidity
12676;BME280;63820;65.654;21.944;2022-12-15T00:02:51;99337.81;;;-21.43;100.00
12676;BME280;63820;65.654;21.944;2022-12-15T00:05:54;99352.13;;;-21.37;100.00
12676;BME280;63820;65.654;21.944;2022-12-15T00:08:56;99345.03;;;-21.33;100.00
12676;BME280;63820;65.654;21.944;2022-12-15T00:11:59;99332.59;;;-21.34;100.00
12676;BME280;63820;65.654;21.944;2022-12-15T00:15:03;99338.75;;;-21.28;100.00
12676;BME280;63820;65.654;21.944;2022-12-15T00:18:06;99335.53;;;-21.27;100.00
12676;BME280;63820;65.654;21.944;2022-12-15T00:21:09;99333.34;;;-21.22;100.00
12676;BME280;63820;65.654;21.944;2022-12-15T00:24:12;99328.31;;;-21.24;100.00
12676;BME280;63820;65.654;21.944;2022-12-15T00:27:15;99326.59;;;-21.11;100.00
12676;BME280;63820;65.654;21.944;2022-12-15T00:30:18;99327.72;;;-20.93;100.00
12676;BME280;63820;65.654;21.944;2022-12-15T00:33:21;99326.56;;;-20.85;100.00
12676;BME280;63820;65.654;21.944;2022-12-15T00:36:24;99331.25;;;-20.75;100.00
12676;BME280;63820;65.654;21.944;2022-12-15T00:39:27;99331.06;;;-20.65;100.00
12676;BME280;63820;65.654;21.944;2022-12-15T00:42:11;99328.97;;;-20.59;100.00
12676;BME280;63820;65.654;21.944;2022-12-15T00:44:55;99329.91;;;-20.57;100.00
12676;BME280;63820;65.654;21.944;2022-12-15T00:47:40;99334.09;;;-20.56;100.00
12676;BME280;63820;65.654;21.944;2022-12-15T00:50:24;99333.13;;;-20.58;100.00
12676;BME280;63820;65.654;21.944;2022-12-15T00:53:27;99331.78;;;-20.52;100.00
12676;BME280;63820;65.654;21.944;2022-12-15T00:56:30;99332.84;;;-20.34;100.00
12676;BME280;63820;65.654;21.944;2022-12-15T00:59:33;99338.41;;;-20.38;100.00
12676;BME280;63820;65.654;21.944;2022-12-15T01:02:36;99343.16;;;-20.41;100.00
12676;BME280;63820;65.654;21.944;2022-12-15T01:05:39;99328.00;;;-20.61;100.00
12676;BME280;63820;65.654;21.944;2022-12-15T01:08:42;99327.72;;;-20.52;100.00
12676;BME280;63820;65.654;21.944;2022-12-15T01:11:46;99327.03;;;-20.49;100.00
12676;BME280;63820;65.654;21.944;2022-12-15T01:14:49;99315.81;;;-20.44;100.00
12676;BME280;63820;65.654;21.944;2022-12-15T01:17:52;99330.81;;;-20.41;100.00
12676;BME280;63820;65.654;21.944;2022-12-15T01:20:56;99334.38;;;-20.36;100.00
12676;BME280;63820;65.654;21.944;2022-12-15T01:23:40;99333.03;;;-20.31;100.00
12676;BME280;63820;65.654;21.944;2022-12-15T01:26:24;99338.34;;;-20.25;100.00
12676;BME280;63820;65.654;21.944;2022-12-15T01:29:08;99339.38;;;-20.22;100.00
12676;BME280;63820;65.654;21.944;2022-12-15T01:31:53;99345.72;;;-20.12;100.00
12676;BME280;63820;65.654;21.944;2022-12-15T01:34:37;99321.50;;;-20.03;100.00
12676;BME280;63820;65.654;21.944;2022-12-15T01:37:21;99301.22;;;-19.97;100.00
12676;BME280;63820;65.654;21.944;2022-12-15T01:40:06;99306.34;;;-19.94;100.00
12676;BME280;63820;65.654;21.944;2022-12-15T01:43:18;99295.94;;;-19.89;100.00
12676;BME280;63820;65.654;21.944;2022-12-15T01:46:10;99286.75;;;-19.91;100.00
12676;BME280;63820;65.654;21.944;2022-12-15T01:49:22;99286.38;;;-19.97;100.00
12676;BME280;63820;65.654;21.944;2022-12-15T01:52:08;99299.25;;;-20.03;100.00
12676;BME280;63820;65.654;21.944;2022-12-15T01:54:56;99281.59;;;-20.09;100.00
12676;BME280;63820;65.654;21.944;2022-12-15T01:57:41;99272.63;;;-20.22;100.00
12676;BME280;63820;65.654;21.944;2022-12-15T02:00:26;99265.38;;;-20.18;100.00
12676;BME280;63820;65.654;21.944;2022-12-15T02:03:11;99267.25;;;-20.14;100.00
12676;BME280;63820;65.654;21.944;2022-12-15T02:05:56;99258.75;;;-20.05;100.00
12676;BME280;63820;65.654;21.944;2022-12-15T02:08:45;99275.13;;;-20.07;100.00
12676;BME280;63820;65.654;21.944;2022-12-15T02:23:54;99277.19;;;-19.85;100.00
12676;BME280;63820;65.654;21.944;2022-12-15T02:27:03;99271.44;;;-19.69;100.00
12676;BME280;63820;65.654;21.944;2022-12-15T02:36:55;99269.13;;;-19.66;100.00
12676;BME280;63820;65.654;21.944;2022-12-15T02:39:31;99273.56;;;-19.61;100.00
12676;BME280;63820;65.654;21.944;2022-12-15T02:42:15;99276.31;;;-19.56;100.00
12676;BME280;63820;65.654;21.944;2022-12-15T02:45:08;99284.19;;;-19.47;100.00
12676;BME280;63820;65.654;21.944;2022-12-15T02:48:25;99286.75;;;-19.31;100.00
12676;BME280;63820;65.654;21.944;2022-12-15T03:00:11;99245.84;;;-18.93;100.00
12676;BME280;63820;65.654;21.944;2022-12-15T03:02:56;99237.94;;;-18.86;100.00
12676;BME280;63820;65.654;21.944;2022-12-15T03:05:41;99239.34;;;-18.75;100.00
12676;BME280;63820;65.654;21.944;2022-12-15T03:08:25;99228.50;;;-18.61;100.00
12676;BME280;63820;65.654;21.944;2022-12-15T03:11:09;99217.31;;;-18.52;100.00
12676;BME280;63820;65.654;21.944;2022-12-15T03:13:53;99213.81;;;-18.40;100.00
12676;BME280;63820;65.654;21.944;2022-12-15T03:16:38;99211.41;;;-18.38;100.00
12676;BME280;63820;65.654;21.944;2022-12-15T03:19:22;99212.25;;;-18.38;100.00
12676;BME280;63820;65.654;21.944;2022-12-15T03:22:06;99237.50;;;-18.29;100.00
12676;BME280;63820;65.654;21.944;2022-12-15T03:24:51;99256.34;;;-18.32;100.00
12676;BME280;63820;65.654;21.944;2022-12-15T03:27:35;99269.84;;;-18.27;100.00
12676;BME280;63820;65.654;21.944;2022-12-15T03:30:20;99256.72;;;-18.08;100.00
12676;BME280;63820;65.654;21.944;2022-12-15T03:33:04;99252.22;;;-17.99;100.00
12676;BME280;63820;65.654;21.944;2022-12-15T03:35:49;99237.94;;;-18.03;100.00
12676;BME280;63820;65.654;21.944;2022-12-15T03:38:34;99226.69;;;-17.97;100.00
12676;BME280;63820;65.654;21.944;2022-12-15T03:41:17;99230.53;;;-17.85;100.00
12676;BME280;63820;65.654;21.944;2022-12-15T03:44:03;99242.25;;;-17.83;100.00
12676;BME280;63820;65.654;21.944;2022-12-15T03:46:47;99246.44;;;-17.82;100.00
12676;BME280;63820;65.654;21.944;2022-12-15T03:49:32;99259.22;;;-17.74;100.00
12676;BME280;63820;65.654;21.944;2022-12-15T03:52:15;99259.34;;;-17.71;100.00
12676;BME280;63820;65.654;21.944;2022-12-15T03:54:59;99258.81;;;-17.64;100.00
12676;BME280;63820;65.654;21.944;2022-12-15T03:57:43;99250.09;;;-17.56;100.00
12676;BME280;63820;65.654;21.944;2022-12-15T04:00:28;99252.94;;;-17.31;100.00
12676;BME280;63820;65.654;21.944;2022-12-15T04:03:12;99245.84;;;-17.23;100.00
12676;BME280;63820;65.654;21.944;2022-12-15T04:05:56;99235.19;;;-17.21;100.00
12676;BME280;63820;65.654;21.944;2022-12-15T04:08:40;99233.78;;;-17.15;100.00
12676;BME280;63820;65.654;21.944;2022-12-15T04:11:24;99224.97;;;-17.09;100.00
12676;BME280;63820;65.654;21.944;2022-12-15T04:14:08;99215.97;;;-16.88;100.00
12676;BME280;63820;65.654;21.944;2022-12-15T04:16:52;99219.53;;;-16.82;100.00
12676;BME280;63820;65.654;21.944;2022-12-15T04:19:37;99219.84;;;-16.75;100.00
12676;BME280;63820;65.654;21.944;2022-12-15T04:22:45;99207.88;;;-16.63;100.00
12676;BME280;63820;65.654;21.944;2022-12-15T04:25:29;99205.94;;;-16.50;100.00
12676;BME280;63820;65.654;21.944;2022-12-15T04:28:32;99207.69;;;-16.48;100.00
12676;BME280;63820;65.654;21.944;2022-12-15T04:31:35;99195.66;;;-16.39;100.00
12676;BME280;63820;65.654;21.944;2022-12-15T04:34:38;99200.81;;;-16.34;100.00
12676;BME280;63820;65.654;21.944;2022-12-15T04:37:41;99200.56;;;-16.40;100.00
12676;BME280;63820;65.654;21.944;2022-12-15T04:40:44;99196.50;;;-16.38;100.00
12676;BME280;63820;65.654;21.944;2022-12-15T04:43:47;99190.53;;;-16.42;100.00
12676;BME280;63820;65.654;21.944;2022-12-15T04:46:50;99205.28;;;-16.46;100.00
12676;BME280;63820;65.654;21.944;2022-12-15T04:49:53;99182.31;;;-16.60;100.00
12676;BME280;63820;65.654;21.944;2022-12-15T04:53:11;99171.75;;;-16.55;100.00
12676;BME280;63820;65.654;21.944;2022-12-15T04:56:15;99184.06;;;-16.58;100.00
12676;BME280;63820;65.654;21.944;2022-12-15T04:59:18;99178.56;;;-16.71;100.00
12676;BME280;63820;65.654;21.944;2022-12-15T05:02:21;99197.06;;;-16.84;100.00
12676;BME280;63820;65.654;21.944;2022-12-15T05:05:24;99204.22;;;-17.09;100.00
12676;BME280;63820;65.654;21.944;2022-12-15T05:08:27;99208.81;;;-17.36;100.00
12676;BME280;63820;65.654;21.944;2022-12-15T05:11:30;99213.19;;;-17.48;100.00
12676;BME280;63820;65.654;21.944;2022-12-15T05:14:33;99210.84;;;-17.63;100.00
12676;BME280;63820;65.654;21.944;2022-12-15T05:17:36;99204.59;;;-17.74;100.00
12676;BME280;63820;65.654;21.944;2022-12-15T05:20:39;99206.44;;;-17.88;100.00
12676;BME280;63820;65.654;21.944;2022-12-15T05:23:42;99215.28;;;-17.93;100.00
12676;BME280;63820;65.654;21.944;2022-12-15T05:26:44;99199.69;;;-17.91;100.00
12676;BME280;63820;65.654;21.944;2022-12-15T05:29:48;99212.38;;;-18.02;100.00
12676;BME280;63820;65.654;21.944;2022-12-15T05:32:50;99225.78;;;-18.15;100.00
12676;BME280;63820;65.654;21.944;2022-12-15T05:35:34;99228.44;;;-18.28;100.00
12676;BME280;63820;65.654;21.944;2022-12-15T05:38:19;99225.44;;;-18.39;100.00
12676;BME280;63820;65.654;21.944;2022-12-15T05:41:03;99212.81;;;-18.43;100.00
12676;BME280;63820;65.654;21.944;2022-12-15T05:43:48;99199.00;;;-18.38;100.00
12676;BME280;63820;65.654;21.944;2022-12-15T05:46:32;99199.94;;;-18.36;100.00
12676;BME280;63820;65.654;21.944;2022-12-15T05:49:18;99209.47;;;-18.28;100.00
12676;BME280;63820;65.654;21.944;2022-12-15T05:52:02;99210.31;;;-18.27;100.00
12676;BME280;63820;65.654;21.944;2022-12-15T05:54:46;99194.78;;;-18.07;100.00
12676;BME280;63820;65.654;21.944;2022-12-15T05:57:30;99193.28;;;-18.03;100.00
12676;BME280;63820;65.654;21.944;2022-12-15T06:00:14;99194.66;;;-17.92;100.00
12676;BME280;63820;65.654;21.944;2022-12-15T06:02:58;99200.47;;;-17.92;100.00
12676;BME280;63820;65.654;21.944;2022-12-15T06:05:42;99201.59;;;-18.03;100.00
12676;BME280;63820;65.654;21.944;2022-12-15T06:08:32;99198.34;;;-18.18;100.00
12676;BME280;63820;65.654;21.944;2022-12-15T06:11:18;99195.19;;;-18.32;100.00
12676;BME280;63820;65.654;21.944;2022-12-15T06:14:03;99194.44;;;-18.47;100.00
12676;BME280;63820;65.654;21.944;2022-12-15T06:16:47;99187.00;;;-18.47;100.00
12676;BME280;63820;65.654;21.944;2022-12-15T06:19:31;99188.72;;;-18.46;100.00
12676;BME280;63820;65.654;21.944;2022-12-15T06:22:15;99185.69;;;-18.57;100.00
12676;BME280;63820;65.654;21.944;2022-12-15T06:25:00;99188.69;;;-18.64;100.00
12676;BME280;63820;65.654;21.944;2022-12-15T06:27:44;99190.72;;;-18.55;100.00
12676;BME280;63820;65.654;21.944;2022-12-15T06:30:29;99183.22;;;-18.57;100.00
12676;BME280;63820;65.654;21.944;2022-12-15T06:33:13;99177.13;;;-18.63;100.00
12676;BME280;63820;65.654;21.944;2022-12-15T06:36:04;99171.03;;;-18.70;100.00
12676;BME280;63820;65.654;21.944;2022-12-15T06:38:49;99174.69;;;-18.79;100.00
12676;BME280;63820;65.654;21.944;2022-12-15T06:41:33;99189.88;;;-18.90;100.00
12676;BME280;63820;65.654;21.944;2022-12-15T06:44:19;99202.19;;;-18.91;100.00
12676;BME280;63820;65.654;21.944;2022-12-15T06:47:03;99216.41;;;-19.03;100.00
12676;BME280;63820;65.654;21.944;2022-12-15T06:49:48;99210.19;;;-19.11;100.00
12676;BME280;63820;65.654;21.944;2022-12-15T06:52:32;99208.94;;;-19.19;100.00
12676;BME280;63820;65.654;21.944;2022-12-15T06:55:16;99201.19;;;-19.26;100.00
12676;BME280;63820;65.654;21.944;2022-12-15T06:58:00;99204.84;;;-19.19;100.00
12676;BME280;63820;65.654;21.944;2022-12-15T07:00:45;99189.63;;;-19.10;100.00
12676;BME280;63820;65.654;21.944;2022-12-15T07:03:29;99184.69;;;-18.94;100.00
12676;BME280;63820;65.654;21.944;2022-12-15T07:06:14;99193.13;;;-18.91;100.00
12676;BME280;63820;65.654;21.944;2022-12-15T07:08:59;99207.66;;;-18.97;100.00
12676;BME280;63820;65.654;21.944;2022-12-15T07:11:44;99209.75;;;-19.04;100.00
12676;BME280;63820;65.654;21.944;2022-12-15T07:14:29;99216.31;;;-19.05;100.00
12676;BME280;63820;65.654;21.944;2022-12-15T07:17:13;99221.81;;;-19.10;100.00
12676;BME280;63820;65.654;21.944;2022-12-15T07:19:57;99227.28;;;-19.16;100.00
12676;BME280;63820;65.654;21.944;2022-12-15T07:22:41;99231.66;;;-19.27;100.00
12676;BME280;63820;65.654;21.944;2022-12-15T07:25:26;99220.91;;;-19.27;100.00
12676;BME280;63820;65.654;21.944;2022-12-15T07:28:10;99227.09;;;-19.35;100.00
12676;BME280;63820;65.654;21.944;2022-12-15T07:31:00;99210.88;;;-19.45;100.00
12676;BME280;63820;65.654;21.944;2022-12-15T07:33:45;99217.88;;;-19.38;100.00
12676;BME280;63820;65.654;21.944;2022-12-15T07:36:31;99230.69;;;-19.45;100.00
12676;BME280;63820;65.654;21.944;2022-12-15T07:39:15;99231.75;;;-19.56;100.00
12676;BME280;63820;65.654;21.944;2022-12-15T07:41:59;99221.69;;;-19.59;100.00
12676;BME280;63820;65.654;21.944;2022-12-15T07:44:43;99226.88;;;-19.55;100.00
12676;BME280;63820;65.654;21.944;2022-12-15T07:47:27;99229.28;;;-19.56;100.00
12676;BME280;63820;65.654;21.944;2022-12-15T07:50:11;99231.38;;;-19.47;100.00
12676;BME280;63820;65.654;21.944;2022-12-15T07:52:55;99225.38;;;-19.36;100.00
12676;BME280;63820;65.654;21.944;2022-12-15T07:55:39;99225.00;;;-19.28;100.00
12676;BME280;63820;65.654;21.944;2022-12-15T07:58:27;99230.47;;;-19.18;100.00
12676;BME280;63820;65.654;21.944;2022-12-15T08:01:13;99228.75;;;-19.19;100.00
12676;BME280;63820;65.654;21.944;2022-12-15T08:03:57;99218.84;;;-19.19;100.00
12676;BME280;63820;65.654;21.944;2022-12-15T08:06:41;99223.63;;;-19.23;100.00
12676;BME280;63820;65.654;21.944;2022-12-15T08:09:25;99215.28;;;-19.25;100.00
12676;BME280;63820;65.654;21.944;2022-12-15T08:12:10;99217.50;;;-19.29;100.00
12676;BME280;63820;65.654;21.944;2022-12-15T08:14:54;99218.56;;;-19.40;100.00
12676;BME280;63820;65.654;21.944;2022-12-15T08:17:38;99232.22;;;-19.47;100.00
12676;BME280;63820;65.654;21.944;2022-12-15T08:20:22;99235.94;;;-19.55;100.00
12676;BME280;63820;65.654;21.944;2022-12-15T08:23:05;99234.47;;;-19.51;100.00
12676;BME280;63820;65.654;21.944;2022-12-15T08:25:50;99222.09;;;-19.51;100.00
12676;BME280;63820;65.654;21.944;2022-12-15T08:28:34;99232.22;;;-19.47;100.00
12676;BME280;63820;65.654;21.944;2022-12-15T08:31:21;99229.84;;;-19.45;100.00
12676;BME280;63820;65.654;21.944;2022-12-15T08:34:07;99236.66;;;-19.41;100.00
12676;BME280;63820;65.654;21.944;2022-12-15T08:36:52;99233.81;;;-19.33;100.00
12676;BME280;63820;65.654;21.944;2022-12-15T08:39:36;99236.94;;;-19.21;100.00
12676;BME280;63820;65.654;21.944;2022-12-15T08:42:21;99249.03;;;-19.10;100.00
12676;BME280;63820;65.654;21.944;2022-12-15T08:45:06;99232.22;;;-18.85;100.00
12676;BME280;63820;65.654;21.944;2022-12-15T08:47:50;99230.59;;;-18.68;100.00
12676;BME280;63820;65.654;21.944;2022-12-15T08:50:35;99236.81;;;-18.59;100.00
12676;BME280;63820;65.654;21.944;2022-12-15T08:53:19;99247.59;;;-18.58;100.00
12676;BME280;63820;65.654;21.944;2022-12-15T08:56:04;99246.34;;;-18.50;100.00
12676;BME280;63820;65.654;21.944;2022-12-15T08:58:54;99239.84;;;-18.48;100.00
12676;BME280;63820;65.654;21.944;2022-12-15T09:01:38;99247.06;;;-18.36;100.00
12676;BME280;63820;65.654;21.944;2022-12-15T09:04:23;99253.09;;;-18.31;100.00
12676;BME280;63820;65.654;21.944;2022-12-15T09:07:07;99247.59;;;-18.26;100.00
12676;BME280;63820;65.654;21.944;2022-12-15T09:09:51;99255.25;;;-18.21;100.00
12676;BME280;63820;65.654;21.944;2022-12-15T09:12:36;99247.16;;;-18.01;100.00
12676;BME280;63820;65.654;21.944;2022-12-15T09:15:20;99256.31;;;-18.00;100.00
12676;BME280;63820;65.654;21.944;2022-12-15T09:18:05;99258.16;;;-17.96;100.00
12676;BME280;63820;65.654;21.944;2022-12-15T09:20:49;99251.66;;;-17.94;100.00
12676;BME280;63820;65.654;21.944;2022-12-15T09:23:34;99251.03;;;-17.90;100.00
12676;BME280;63820;65.654;21.944;2022-12-15T09:26:21;99255.06;;;-17.92;100.00
12676;BME280;63820;65.654;21.944;2022-12-15T09:29:06;99263.59;;;-17.86;100.00
12676;BME280;63820;65.654;21.944;2022-12-15T09:31:50;99262.69;;;-18.05;100.00
12676;BME280;63820;65.654;21.944;2022-12-15T09:34:34;99252.47;;;-18.11;100.00
12676;BME280;63820;65.654;21.944;2022-12-15T09:37:19;99257.25;;;-18.14;100.00
12676;BME280;63820;65.654;21.944;2022-12-15T09:40:03;99257.66;;;-18.06;100.00
12676;BME280;63820;65.654;21.944;2022-12-15T09:42:54;99258.88;;;-17.98;100.00
12676;BME280;63820;65.654;21.944;2022-12-15T09:45:41;99260.81;;;-18.09;100.00
12676;BME280;63820;65.654;21.944;2022-12-15T09:48:38;99264.31;;;-18.05;100.00
12676;BME280;63820;65.654;21.944;2022-12-15T09:51:32;99264.09;;;-18.10;100.00
12676;BME280;63820;65.654;21.944;2022-12-15T09:54:20;99256.50;;;-18.13;100.00
12676;BME280;63820;65.654;21.944;2022-12-15T09:57:32;99261.16;;;-18.19;100.00
12676;BME280;63820;65.654;21.944;2022-12-15T10:00:48;99268.13;;;-18.28;100.00
12676;BME280;63820;65.654;21.944;2022-12-15T10:04:00;99267.66;;;-18.21;100.00
12676;BME280;63820;65.654;21.944;2022-12-15T10:07:04;99276.19;;;-18.32;100.00
12676;BME280;63820;65.654;21.944;2022-12-15T10:09:51;99276.88;;;-18.35;100.00
12676;BME280;63820;65.654;21.944;2022-12-15T10:12:36;99279.59;;;-18.30;100.00
12676;BME280;63820;65.654;21.944;2022-12-15T10:15:25;99285.03;;;-18.37;100.00
12676;BME280;63820;65.654;21.944;2022-12-15T10:20:59;99292.31;;;-18.40;100.00
12676;BME280;63820;65.654;21.944;2022-12-15T10:23:47;99294.00;;;-18.39;100.00
12676;BME280;63820;65.654;21.944;2022-12-15T10:26:33;99296.03;;;-18.32;100.00
12676;BME280;63820;65.654;21.944;2022-12-15T10:29:27;99299.59;;;-18.27;100.00
12676;BME280;63820;65.654;21.944;2022-12-15T10:32:42;99301.28;;;-18.26;100.00
12676;BME280;63820;65.654;21.944;2022-12-15T10:35:33;99303.53;;;-18.31;100.00
12676;BME280;63820;65.654;21.944;2022-12-15T10:41:18;99308.03;;;-18.40;100.00
12676;BME280;63820;65.654;21.944;2022-12-15T10:44:22;99307.34;;;-18.37;100.00
12676;BME280;63820;65.654;21.944;2022-12-15T10:47:19;99307.63;;;-18.47;100.00
12676;BME280;63820;65.654;21.944;2022-12-15T10:50:23;99310.56;;;-18.55;100.00
12676;BME280;63820;65.654;21.944;2022-12-15T10:53:08;99312.44;;;-18.67;100.00
12676;BME280;63820;65.654;21.944;2022-12-15T10:56:27;99313.00;;;-18.72;100.00
12676;BME280;63820;65.654;21.944;2022-12-15T10:59:34;99312.00;;;-18.76;100.00
12676;BME280;63820;65.654;21.944;2022-12-15T11:02:30;99329.25;;;-18.77;100.00
12676;BME280;63820;65.654;21.944;2022-12-15T11:05:16;99329.25;;;-18.77;100.00
12676;BME280;63820;65.654;21.944;2022-12-15T11:08:16;99332.19;;;-18.84;100.00
12676;BME280;63820;65.654;21.944;2022-12-15T11:11:00;99333.53;;;-18.75;100.00
12676;BME280;63820;65.654;21.944;2022-12-15T11:14:10;99343.09;;;-18.81;100.00
12676;BME280;63820;65.654;21.944;2022-12-15T11:16:56;99340.66;;;-18.96;100.00
12676;BME280;63820;65.654;21.944;2022-12-15T11:19:59;99335.94;;;-18.91;100.00
12676;BME280;63820;65.654;21.944;2022-12-15T11:22:52;99344.94;;;-18.93;100.00
12676;BME280;63820;65.654;21.944;2022-12-15T11:25:46;99334.44;;;-19.04;100.00
12676;BME280;63820;65.654;21.944;2022-12-15T11:28:41;99338.53;;;-19.04;100.00
12676;BME280;63820;65.654;21.944;2022-12-15T11:31:33;99345.19;;;-19.03;100.00
12676;BME280;63820;65.654;21.944;2022-12-15T11:34:22;99352.78;;;-19.00;100.00
12676;BME280;63820;65.654;21.944;2022-12-15T11:46:22;99346.53;;;-18.79;100.00
12676;BME280;63820;65.654;21.944;2022-12-15T12:01:12;99359.63;;;-18.65;100.00
12676;BME280;63820;65.654;21.944;2022-12-15T12:10:11;99351.91;;;-18.86;100.00
12676;BME280;63820;65.654;21.944;2022-12-15T12:13:20;99353.03;;;-18.81;100.00
12676;BME280;63820;65.654;21.944;2022-12-15T12:19:18;99363.28;;;-18.90;100.00
12676;BME280;63820;65.654;21.944;2022-12-15T12:22:33;99362.78;;;-18.99;100.00
12676;BME280;63820;65.654;21.944;2022-12-15T12:25:24;99361.28;;;-19.11;100.00
12676;BME280;63820;65.654;21.944;2022-12-15T12:28:20;99362.31;;;-19.23;100.00
12676;BME280;63820;65.654;21.944;2022-12-15T12:31:24;99358.72;;;-19.28;100.00
12676;BME280;63820;65.654;21.944;2022-12-15T12:34:20;99356.84;;;-19.32;100.00
12676;BME280;63820;65.654;21.944;2022-12-15T12:37:23;99352.41;;;-19.37;100.00
12676;BME280;63820;65.654;21.944;2022-12-15T12:40:21;99365.28;;;-19.43;100.00
12676;BME280;63820;65.654;21.944;2022-12-15T12:46:47;99372.06;;;-19.55;100.00
12676;BME280;63820;65.654;21.944;2022-12-15T12:49:38;99390.47;;;-19.65;100.00
12676;BME280;63820;65.654;21.944;2022-12-15T12:52:29;99391.56;;;-19.74;100.00
12676;BME280;63820;65.654;21.944;2022-12-15T12:55:46;99389.81;;;-19.77;100.00
12676;BME280;63820;65.654;21.944;2022-12-15T12:58:38;99390.13;;;-19.71;100.00
12676;BME280;63820;65.654;21.944;2022-12-15T13:01:25;99385.78;;;-19.60;100.00
12676;BME280;63820;65.654;21.944;2022-12-15T13:04:12;99398.16;;;-19.60;100.00
12676;BME280;63820;65.654;21.944;2022-12-15T13:07:00;99402.94;;;-19.63;100.00
12676;BME280;63820;65.654;21.944;2022-12-15T13:10:21;99418.19;;;-19.70;100.00
12676;BME280;63820;65.654;21.944;2022-12-15T13:16:24;99411.84;;;-19.95;100.00
12676;BME280;63820;65.654;21.944;2022-12-15T13:19:11;99413.88;;;-20.02;100.00
12676;BME280;63820;65.654;21.944;2022-12-15T13:21:55;99413.59;;;-20.07;100.00
12676;BME280;63820;65.654;21.944;2022-12-15T13:24:45;99416.66;;;-20.11;100.00
12676;BME280;63820;65.654;21.944;2022-12-15T13:27:36;99417.31;;;-20.13;100.00
12676;BME280;63820;65.654;21.944;2022-12-15T13:30:21;99417.41;;;-20.12;100.00
12676;BME280;63820;65.654;21.944;2022-12-15T13:33:17;99424.06;;;-20.11;100.00
12676;BME280;63820;65.654;21.944;2022-12-15T13:36:01;99421.59;;;-20.11;100.00
12676;BME280;63820;65.654;21.944;2022-12-15T13:38:53;99420.28;;;-20.19;100.00
12676;BME280;63820;65.654;21.944;2022-12-15T13:44:37;99428.56;;;-20.18;100.00
12676;BME280;63820;65.654;21.944;2022-12-15T13:47:29;99425.81;;;-20.23;100.00
12676;BME280;63820;65.654;21.944;2022-12-15T13:50:30;99429.63;;;-20.28;100.00
12676;BME280;63820;65.654;21.944;2022-12-15T13:53:20;99429.53;;;-20.30;100.00
12676;BME280;63820;65.654;21.944;2022-12-15T13:56:13;99428.38;;;-20.35;100.00
12676;BME280;63820;65.654;21.944;2022-12-15T13:59:06;99427.38;;;-20.38;100.00
12676;BME280;63820;65.654;21.944;2022-12-15T14:01:56;99434.41;;;-20.44;100.00
12676;BME280;63820;65.654;21.944;2022-12-15T14:04:40;99433.28;;;-20.49;100.00
12676;BME280;63820;65.654;21.944;2022-12-15T14:07:24;99436.03;;;-20.58;100.00
12676;BME280;63820;65.654;21.944;2022-12-15T14:10:19;99445.06;;;-20.59;100.00
12676;BME280;63820;65.654;21.944;2022-12-15T14:13:16;99444.31;;;-20.58;100.00
12676;BME280;63820;65.654;21.944;2022-12-15T14:16:06;99449.44;;;-20.68;100.00
12676;BME280;63820;65.654;21.944;2022-12-15T14:19:16;99456.47;;;-20.74;100.00
12676;BME280;63820;65.654;21.944;2022-12-15T14:22:00;99446.72;;;-20.85;100.00
12676;BME280;63820;65.654;21.944;2022-12-15T14:24:45;99451.84;;;-20.82;100.00
12676;BME280;63820;65.654;21.944;2022-12-15T14:27:31;99453.66;;;-20.80;100.00
12676;BME280;63820;65.654;21.944;2022-12-15T14:30:37;99457.91;;;-20.77;100.00
12676;BME280;63820;65.654;21.944;2022-12-15T14:33:22;99453.25;;;-20.86;100.00
12676;BME280;63820;65.654;21.944;2022-12-15T14:36:10;99455.72;;;-20.86;100.00
12676;BME280;63820;65.654;21.944;2022-12-15T14:39:09;99447.94;;;-20.92;100.00
12676;BME280;63820;65.654;21.944;2022-12-15T14:41:56;99443.75;;;-20.93;100.00
12676;BME280;63820;65.654;21.944;2022-12-15T14:44:45;99449.34;;;-20.96;100.00
12676;BME280;63820;65.654;21.944;2022-12-15T14:47:32;99454.41;;;-20.94;100.00
12676;BME280;63820;65.654;21.944;2022-12-15T14:50:18;99454.78;;;-20.88;100.00
12676;BME280;63820;65.654;21.944;2022-12-15T14:53:06;99454.13;;;-20.85;100.00
12676;BME280;63820;65.654;21.944;2022-12-15T14:55:56;99452.03;;;-20.79;100.00
12676;BME280;63820;65.654;21.944;2022-12-15T15:01:40;99458.75;;;-20.77;100.00
12676;BME280;63820;65.654;21.944;2022-12-15T15:04:33;99465.41;;;-20.76;100.00
12676;BME280;63820;65.654;21.944;2022-12-15T15:07:17;99473.56;;;-20.77;100.00
12676;BME280;63820;65.654;21.944;2022-12-15T15:10:03;99466.72;;;-20.68;100.00
12676;BME280;63820;65.654;21.944;2022-12-15T15:12:51;99464.06;;;-20.71;100.00
12676;BME280;63820;65.654;21.944;2022-12-15T15:15:36;99477.84;;;-20.74;100.00
12676;BME280;63820;65.654;21.944;2022-12-15T15:18:25;99472.06;;;-20.75;100.00
12676;BME280;63820;65.654;21.944;2022-12-15T15:21:17;99479.88;;;-20.82;100.00
12676;BME280;63820;65.654;21.944;2022-12-15T15:27:25;99477.84;;;-20.74;100.00
12676;BME280;63820;65.654;21.944;2022-12-15T15:30:15;99482.69;;;-20.76;100.00
12676;BME280;63820;65.654;21.944;2022-12-15T15:32:59;99493.72;;;-20.84;100.00
12676;BME280;63820;65.654;21.944;2022-12-15T15:35:49;99497.25;;;-20.80;100.00
12676;BME280;63820;65.654;21.944;2022-12-15T15:38:37;99494.03;;;-20.79;100.00
12676;BME280;63820;65.654;21.944;2022-12-15T15:41:32;99509.59;;;-20.80;100.00
12676;BME280;63820;65.654;21.944;2022-12-15T15:44:16;99510.44;;;-20.80;100.00
12676;BME280;63820;65.654;21.944;2022-12-15T15:47:00;99507.69;;;-20.84;100.00
12676;BME280;63820;65.654;21.944;2022-12-15T15:49:45;99505.88;;;-20.87;100.00
12676;BME280;63820;65.654;21.944;2022-12-15T15:52:29;99508.25;;;-20.89;100.00